Aeroporto :
LOGIN :

Iscrizione | Disclaimer

   EN    FR    IT 

 










Sommario :    VFR   VFR Marginale   IFR   IFR Intensivo   IFR Molto Intensivo
Visibilità : 
Base nubi : 
>= 8 km
>= 3000ft
5 / 8 km
1000 / 3000 ft
1500m / 5 km
500 / 1000 ft
800 / 1500m
200 / 500 ft
< 800m
< 200 ft
Simboli :   Temporali  Nebbia  Neve Forte  Precipitazioni Forti  Vento > 20 kt
SIGMETs :   Varie  Temporali  Ghiacco  Turbolenza  Onda orograficha  Ceneri Vulcaniche






- Altitudine del aeroporto : 755 ft
- Codice IATA : KSC


LZKZ - Kosice

ULTIMO METAR :
  • 131200Z 04006KT CAVOK 13/11 Q1004 NOSIG

METARs OBSOLETI :
  • 131130Z 02005KT CAVOK 13/11 Q1004 NOSIG
  • 131100Z 02006KT 9999 -RA FEW020 OVC060 12/11 Q1005 NOSIG
  • 131030Z 36005KT 9999 FEW020 OVC070 12/11 Q1005 NOSIG
  • 131000Z 06004KT 9999 -RA FEW020 OVC070 12/11 Q1005 NOSIG
  • 130930Z 20004KT 9999 -RA FEW022 OVC060 12/11 Q1006 NOSIG

TAF TAF LZKZ
Valido dal 13 a 12 ore il 14 a 12 ore UTC


131100Z 1312/1412 05005KT 9999 SCT020 OVC060
BECMG 1316/1318 18010KT BKN020
TEMPO 1320/1402 20018KT
TEMPO 1402/1404 20005KT
TEMPO 1404/1409 4500 BR SCT002 BKN050
BECMG 1408/1410 SCT030



MetMap, La meteo Aeronautica in un colpo d'occhio ! - Copyright ORBIFLY Dicembre 2007 - Disclaimer

ORBIFLY MET'MAP TEAM :

Programmazione e sviluppo : Alexandra Zaïnal
Concezione e sviluppo : Baudouin d'Aumeries
Co-Programmazione e sviluppo : Marc-Olivier Méhu
Supporto tecnico e logistico : Manuel Goepfert
Aiuto per la traduzione : Arnaldo La Scala

Contatto : metmap@orbifly.com




FONTI E CREDITI :

   NOAA